Terminal Aerodrome Forecast
Issued by NWS Brownsville, TX

Home | Current Version | Previous Version | Text Only | Print | Product List | Glossary On
Versions: 1 2 3 4 5 6 7 8 9 10 11 12 13 14 15 16
000
FTUS44 KBRO 260529
TAFMFE
TAF
KMFE 260529Z 2606/2706 12005KT P6SM OVC250
     FM260900 10005KT P6SM OVC100
     FM261400 07009KT P6SM VCSH BKN050
      TEMPO 2618/2622 5SM TSRA BKN030CB=

USA.gov is the U.S. government's official web portal to all federal, state and local government web resources and services.